createdAt,value
2019-03-15T00:00:04.524Z,97430.00
2019-03-15T00:03:19.886Z,97437.91
2019-03-15T00:05:50.237Z,97453.77
2019-03-15T00:08:22.827Z,97459.20
2019-03-15T00:11:12.841Z,97452.66
2019-03-15T00:14:04.250Z,97466.78
2019-03-15T00:16:53.822Z,97468.69
2019-03-15T00:19:29.304Z,97391.56
2019-03-15T00:22:00.814Z,97473.59
2019-03-15T00:24:42.323Z,97481.25
2019-03-15T00:27:13.642Z,97475.99
2019-03-15T00:29:48.416Z,97479.56
2019-03-15T00:32:19.982Z,97479.56
2019-03-15T00:35:11.597Z,97477.81
2019-03-15T00:38:01.940Z,97478.81
2019-03-15T00:40:51.458Z,97487.56
2019-03-15T00:43:23.222Z,97486.13
2019-03-15T00:45:54.910Z,97486.95
2019-03-15T00:48:29.604Z,97489.41
2019-03-15T00:51:20.894Z,97483.63
2019-03-15T00:53:54.086Z,97477.15
2019-03-15T00:56:25.973Z,97476.01
2019-03-15T00:58:57.835Z,97474.96
2019-03-15T01:01:49.244Z,97483.11
2019-03-15T01:04:38.835Z,97483.06
2019-03-15T01:07:28.147Z,97488.30
2019-03-15T01:10:18.839Z,97481.82
2019-03-15T01:13:08.053Z,97495.18
2019-03-15T01:15:39.427Z,97477.02
2019-03-15T01:18:28.750Z,97488.53
2019-03-15T01:20:59.927Z,97494.41
2019-03-15T01:23:50.942Z,97494.23
2019-03-15T01:26:21.501Z,97487.10
2019-03-15T01:28:51.743Z,97499.44
2019-03-15T01:31:41.094Z,97495.63
2019-03-15T01:34:30.539Z,97504.11
2019-03-15T01:37:00.705Z,97499.58
2019-03-15T01:39:31.343Z,97501.21
2019-03-15T01:42:01.511Z,97504.70
2019-03-15T01:44:51.465Z,97504.31
2019-03-15T01:47:40.713Z,97376.12
2019-03-15T01:50:11.040Z,97373.77
2019-03-15T01:52:42.497Z,97507.75
2019-03-15T01:55:32.003Z,97507.91
2019-03-15T01:58:02.180Z,97509.14
2019-03-15T02:03:48.076Z,97514.39
2019-03-15T02:06:39.636Z,97511.04
2019-03-15T02:09:12.473Z,97509.95
2019-03-15T02:11:43.638Z,97505.77
2019-03-15T02:14:34.917Z,97508.66
2019-03-15T02:17:26.885Z,97515.44
2019-03-15T02:19:57.206Z,97515.38
2019-03-15T02:22:38.977Z,97503.11
2019-03-15T02:25:23.227Z,97517.36
2019-03-15T02:28:05.024Z,97511.88
2019-03-15T02:30:47.138Z,97501.39
2019-03-15T02:33:18.496Z,97498.49
2019-03-15T02:35:59.881Z,97496.68
2019-03-15T02:38:31.870Z,97500.19
2019-03-15T02:41:23.112Z,97498.27
2019-03-15T02:44:12.850Z,97501.68
2019-03-15T02:47:02.094Z,97503.52
2019-03-15T02:49:51.678Z,97498.93
2019-03-15T02:52:21.882Z,97492.28
2019-03-15T02:54:54.633Z,97491.97
2019-03-15T03:00:55.071Z,97378.86
2019-03-15T03:03:44.849Z,97492.75
2019-03-15T03:06:34.021Z,97479.62
2019-03-15T03:09:25.206Z,97478.38
2019-03-15T03:15:25.049Z,97492.27
2019-03-15T03:21:07.885Z,97487.72
2019-03-15T03:23:49.159Z,97493.75
2019-03-15T03:32:09.707Z,97513.19
2019-03-15T03:37:55.002Z,97521.59
2019-03-15T03:40:44.685Z,97521.34
2019-03-15T03:43:34.291Z,97532.02
2019-03-15T03:46:05.601Z,97537.36
2019-03-15T03:48:37.440Z,97535.09
2019-03-15T03:51:08.640Z,97542.09
2019-03-15T03:53:42.005Z,97544.48
2019-03-15T03:56:31.190Z,97540.44
2019-03-15T03:59:03.988Z,97534.16
2019-03-15T04:01:34.882Z,97522.93
2019-03-15T04:04:06.752Z,97522.93
2019-03-15T04:06:55.953Z,97513.48
2019-03-15T04:09:49.895Z,97515.53
2019-03-15T04:12:42.194Z,97501.36
2019-03-15T04:15:50.367Z,97506.53
2019-03-15T04:18:41.092Z,97513.69
2019-03-15T04:21:31.041Z,97515.28
2019-03-15T04:24:01.695Z,97504.38
2019-03-15T04:26:32.340Z,97503.09
2019-03-15T04:29:02.884Z,97507.38
2019-03-15T04:31:35.172Z,97507.28
2019-03-15T04:34:28.217Z,97513.61
2019-03-15T04:37:16.486Z,97521.93
2019-03-15T04:40:07.726Z,97522.84
2019-03-15T04:42:57.581Z,97520.38
2019-03-15T04:45:28.722Z,97525.36
2019-03-15T04:48:18.226Z,97532.89
2019-03-15T04:51:08.745Z,97528.41
2019-03-15T04:53:39.171Z,97533.75
2019-03-15T04:56:09.622Z,97523.73
2019-03-15T04:58:41.174Z,97521.13
2019-03-15T05:04:09.517Z,97525.42
2019-03-15T05:06:40.403Z,97519.48
2019-03-15T05:09:10.597Z,97519.09
2019-03-15T05:11:42.699Z,97524.58
2019-03-15T05:15:36.183Z,97518.49
2019-03-15T05:18:02.450Z,97512.25
2019-03-15T05:20:52.168Z,97515.05
2019-03-15T05:23:22.807Z,97508.03
2019-03-15T05:26:13.454Z,97517.41
2019-03-15T05:28:43.754Z,97514.60
2019-03-15T05:31:44.183Z,97517.20
2019-03-15T05:34:14.764Z,97520.02
2019-03-15T05:36:47.388Z,97517.10
2019-03-15T05:39:37.220Z,97512.46
2019-03-15T05:42:07.841Z,97511.91
2019-03-15T05:44:38.080Z,97506.12
2019-03-15T05:47:08.965Z,97508.71
2019-03-15T05:49:40.412Z,97509.46
2019-03-15T05:52:32.923Z,97501.68
2019-03-15T05:55:06.705Z,97504.27
2019-03-15T05:57:36.961Z,97508.50
2019-03-15T06:00:13.105Z,97509.54
2019-03-15T06:02:43.429Z,97511.52
2019-03-15T06:05:14.011Z,97506.24
2019-03-15T06:08:22.172Z,97503.28
2019-03-15T06:11:12.392Z,97499.14
2019-03-15T06:14:02.707Z,97500.06
2019-03-15T06:16:44.208Z,97496.66
2019-03-15T06:22:09.400Z,97507.66
2019-03-15T06:24:53.105Z,97505.13
2019-03-15T06:27:43.911Z,97510.69
2019-03-15T06:30:35.740Z,97510.48
2019-03-15T06:33:24.894Z,97517.82
2019-03-15T06:36:14.624Z,97522.69
2019-03-15T06:38:44.945Z,97522.52
2019-03-15T06:41:36.861Z,97525.55
2019-03-15T06:44:27.176Z,97523.23
2019-03-15T06:46:59.838Z,97522.61
2019-03-15T06:49:31.370Z,97524.59
2019-03-15T06:52:02.021Z,97531.70
2019-03-15T06:54:51.635Z,97525.33
2019-03-15T06:57:22.686Z,97525.33
2019-03-15T07:00:31.110Z,97522.28
2019-03-15T07:03:02.560Z,97525.95
2019-03-15T07:05:52.156Z,97522.52
2019-03-15T07:08:22.821Z,97519.05
2019-03-15T07:10:52.967Z,97527.12
2019-03-15T07:13:23.867Z,97534.08
2019-03-15T07:15:55.427Z,97524.37
2019-03-15T07:18:44.508Z,97529.73
2019-03-15T07:21:15.322Z,97525.12
2019-03-15T07:23:46.319Z,97528.16
2019-03-15T07:26:37.871Z,97527.25
2019-03-15T07:29:08.537Z,97520.53
2019-03-15T07:31:39.191Z,97515.89
2019-03-15T07:34:29.800Z,97508.40
2019-03-15T07:37:00.136Z,97508.86
2019-03-15T07:39:31.467Z,97511.83
2019-03-15T07:42:21.975Z,97509.23
2019-03-15T07:45:11.582Z,97505.89
2019-03-15T07:48:01.026Z,97502.00
2019-03-15T07:53:46.746Z,97499.42
2019-03-15T07:56:36.276Z,97386.63
2019-03-15T07:59:28.047Z,97481.72
2019-03-15T08:01:58.285Z,97477.27
2019-03-15T08:04:47.480Z,97479.31
2019-03-15T08:07:20.077Z,97480.16
2019-03-15T08:09:50.721Z,97471.06
2019-03-15T08:12:42.042Z,97473.70
2019-03-15T08:15:12.347Z,97475.23
2019-03-15T08:17:42.741Z,97465.02
2019-03-15T08:20:13.041Z,97466.75
2019-03-15T08:25:34.573Z,97464.50
2019-03-15T08:28:04.755Z,97460.99
2019-03-15T08:30:53.968Z,97454.49
2019-03-15T08:33:24.104Z,97449.19
2019-03-15T08:35:54.335Z,97446.70
2019-03-15T08:38:24.857Z,97442.45
2019-03-15T08:40:55.038Z,97443.92
2019-03-15T08:43:25.222Z,97445.05
2019-03-15T08:45:57.655Z,97432.72
2019-03-15T08:48:39.499Z,97435.91
2019-03-15T08:51:21.001Z,97426.14
2019-03-15T08:54:02.269Z,97427.83
2019-03-15T08:56:32.517Z,97427.38
2019-03-15T08:59:02.726Z,97418.00
2019-03-15T09:01:32.960Z,97417.64
2019-03-15T09:04:22.187Z,97414.27
2019-03-15T09:06:52.364Z,97410.47
2019-03-15T09:09:22.625Z,97407.42
2019-03-15T09:12:11.815Z,97410.69
2019-03-15T09:14:42.021Z,97406.58
2019-03-15T09:17:31.443Z,97411.80
2019-03-15T09:20:01.591Z,97405.95
2019-03-15T09:22:31.761Z,97405.95
2019-03-15T09:25:01.931Z,97397.56
2019-03-15T09:27:32.359Z,97399.24
2019-03-15T09:30:24.209Z,97391.81
2019-03-15T09:33:12.515Z,97404.46
2019-03-15T09:36:01.690Z,97392.06
2019-03-15T09:39:10.041Z,97393.30
2019-03-15T09:41:59.265Z,97392.56
2019-03-15T09:44:49.540Z,97393.56
2019-03-15T09:47:19.701Z,97399.14
2019-03-15T09:49:49.846Z,97387.05
2019-03-15T09:52:20.418Z,97397.84
2019-03-15T09:55:09.632Z,97397.36
2019-03-15T09:57:39.797Z,97395.59
2019-03-15T10:00:13.222Z,97387.77
2019-03-15T10:02:43.656Z,97385.81
2019-03-15T10:05:14.387Z,97398.56
2019-03-15T10:07:44.743Z,97392.89
2019-03-15T10:10:26.343Z,97392.39
2019-03-15T10:13:05.853Z,97305.39
2019-03-15T10:15:30.567Z,97393.23
2019-03-15T10:18:00.755Z,97394.88
2019-03-15T10:20:30.877Z,97398.59
2019-03-15T10:23:05.793Z,97399.39
2019-03-15T10:25:46.250Z,97398.54
2019-03-15T10:28:06.285Z,97400.36
2019-03-15T10:30:36.744Z,97400.52
2019-03-15T10:33:06.931Z,97395.56
2019-03-15T10:35:56.151Z,97391.83
2019-03-15T10:38:26.290Z,97386.75
2019-03-15T10:40:56.671Z,97395.30
2019-03-15T10:43:26.791Z,97397.25
2019-03-15T10:45:57.328Z,97396.28
2019-03-15T10:48:46.598Z,97397.59
2019-03-15T10:51:35.755Z,97404.32
2019-03-15T10:54:06.084Z,97249.66
2019-03-15T10:56:55.687Z,97412.92
2019-03-15T10:59:25.941Z,97408.72
2019-03-15T11:01:56.332Z,97411.02
2019-03-15T11:04:26.514Z,97415.98
2019-03-15T11:07:15.730Z,97410.66
2019-03-15T11:10:05.134Z,97414.37
2019-03-15T11:12:46.536Z,97409.45
2019-03-15T11:15:16.802Z,97409.41
2019-03-15T11:17:46.999Z,97414.55
2019-03-15T11:20:17.116Z,97418.05
2019-03-15T11:22:48.674Z,97414.21
2019-03-15T11:25:38.111Z,97418.42
2019-03-15T11:28:08.320Z,97419.30
2019-03-15T11:30:38.511Z,97422.20
2019-03-15T11:33:09.034Z,97420.21
2019-03-15T11:35:45.577Z,97424.91
2019-03-15T11:38:34.786Z,97420.88
2019-03-15T11:41:06.047Z,97429.95
2019-03-15T11:43:36.356Z,97421.19
2019-03-15T11:46:06.590Z,97433.56
2019-03-15T11:48:37.112Z,97427.78
2019-03-15T11:51:07.319Z,97426.56
2019-03-15T11:53:37.759Z,97420.67
2019-03-15T11:56:10.716Z,97423.80
2019-03-15T11:58:42.249Z,97427.38
2019-03-15T12:01:14.522Z,97430.80
2019-03-15T12:03:52.969Z,97429.20
2019-03-15T12:06:16.910Z,97443.23
2019-03-15T12:08:47.028Z,97424.59
2019-03-15T12:11:17.160Z,97424.63
2019-03-15T12:13:47.395Z,97425.12
2019-03-15T12:16:17.923Z,97428.96
2019-03-15T12:19:07.108Z,97431.20
2019-03-15T12:21:37.393Z,97451.82
2019-03-15T12:24:07.950Z,97439.59
2019-03-15T12:26:40.595Z,97436.99
2019-03-15T12:29:10.083Z,97433.40
2019-03-15T12:31:40.468Z,97439.73
2019-03-15T12:34:10.660Z,97442.71
2019-03-15T12:36:59.809Z,97441.53
2019-03-15T12:39:30.432Z,97434.39
2019-03-15T12:42:19.619Z,97454.05
2019-03-15T12:44:49.778Z,97441.55
2019-03-15T12:47:38.941Z,97443.81
2019-03-15T12:50:28.124Z,97452.73
2019-03-15T12:52:58.277Z,97450.58
2019-03-15T12:55:47.601Z,97452.27
2019-03-15T12:58:36.743Z,97456.66
2019-03-15T13:01:26.198Z,97455.25
2019-03-15T13:04:15.363Z,97457.83
2019-03-15T13:07:04.841Z,97469.38
2019-03-15T13:09:46.876Z,97465.81
2019-03-15T13:12:28.412Z,97467.49
2019-03-15T13:15:10.250Z,97474.14
2019-03-15T13:20:17.355Z,97475.38
2019-03-15T13:23:27.174Z,97467.39
2019-03-15T13:26:16.329Z,97481.33
2019-03-15T13:28:46.548Z,97477.53
2019-03-15T13:31:35.745Z,97484.18
2019-03-15T13:34:25.003Z,97483.70
2019-03-15T13:37:14.239Z,97485.26
2019-03-15T13:40:04.061Z,97483.14
2019-03-15T13:42:34.211Z,97490.27
2019-03-15T13:45:23.716Z,97485.77
2019-03-15T13:47:53.809Z,97402.83
2019-03-15T13:50:23.939Z,97481.23
2019-03-15T13:53:14.237Z,97486.95
2019-03-15T13:55:44.458Z,97484.94
2019-03-15T13:58:14.587Z,97496.16
2019-03-15T14:01:04.066Z,97490.91
2019-03-15T14:03:53.305Z,97487.38
2019-03-15T14:06:23.449Z,97486.16
2019-03-15T14:09:05.218Z,97500.24
2019-03-15T14:11:49.538Z,97484.83
2019-03-15T14:14:39.103Z,97488.66
2019-03-15T14:17:28.281Z,97497.02
2019-03-15T14:20:17.760Z,97497.61
2019-03-15T14:23:06.971Z,97496.87
2019-03-15T14:25:56.177Z,97509.28
2019-03-15T14:28:45.368Z,97502.00
2019-03-15T14:31:36.956Z,97491.75
2019-03-15T14:34:38.117Z,97505.56
2019-03-15T14:40:32.297Z,97500.94
2019-03-15T14:43:02.671Z,97501.30
2019-03-15T14:45:52.121Z,97489.50
2019-03-15T14:48:41.406Z,97494.98
2019-03-15T14:51:11.587Z,97500.55
2019-03-15T14:54:00.858Z,97491.14
2019-03-15T14:56:31.107Z,97493.91
2019-03-15T14:59:01.390Z,97499.62
2019-03-15T15:01:50.841Z,97491.75
2019-03-15T15:04:40.074Z,97491.03
2019-03-15T15:07:29.310Z,97513.78
2019-03-15T15:10:10.641Z,97403.69
2019-03-15T15:12:52.450Z,97497.80
2019-03-15T15:15:33.987Z,97358.55
2019-03-15T15:18:15.582Z,97502.08
2019-03-15T15:20:57.440Z,97498.84
2019-03-15T15:23:37.461Z,97517.70
2019-03-15T15:26:27.019Z,97507.89
2019-03-15T15:28:57.227Z,97507.40
2019-03-15T15:31:46.685Z,97524.00
2019-03-15T15:34:16.827Z,97534.50
2019-03-15T15:37:06.001Z,97529.70
2019-03-15T15:39:55.257Z,97530.42
2019-03-15T15:42:44.765Z,97425.16
2019-03-15T15:45:34.018Z,97527.95
2019-03-15T15:48:23.490Z,97516.27
2019-03-15T15:51:21.895Z,97514.58
2019-03-15T15:53:52.158Z,97505.53
2019-03-15T15:56:41.476Z,97512.09
2019-03-15T15:59:30.895Z,97518.04
2019-03-15T16:02:20.130Z,97506.70
2019-03-15T16:05:09.403Z,97514.25
2019-03-15T16:07:58.711Z,97516.75
2019-03-15T16:10:39.415Z,97520.56
2019-03-15T16:13:17.404Z,97516.16
2019-03-15T16:16:01.760Z,97520.47
2019-03-15T16:18:41.611Z,97519.25
2019-03-15T16:21:31.412Z,97502.80
2019-03-15T16:33:40.089Z,97532.39
2019-03-15T16:39:45.127Z,97536.09
2019-03-15T16:42:15.301Z,97542.66
2019-03-15T16:44:46.408Z,97552.07
2019-03-15T16:47:17.302Z,97549.09
2019-03-15T16:52:44.689Z,97553.28
2019-03-15T16:55:15.423Z,97560.31
2019-03-15T17:00:54.256Z,97567.45
2019-03-15T17:03:26.691Z,97570.58
2019-03-15T17:09:17.088Z,97577.00
2019-03-15T17:12:07.414Z,97585.94
2019-03-15T17:14:58.077Z,97593.58
2019-03-15T17:17:47.652Z,97582.95
2019-03-15T17:20:19.863Z,97588.66
2019-03-15T17:23:09.832Z,97593.80
2019-03-15T17:28:58.531Z,97578.07
2019-03-15T17:31:41.978Z,97585.00
2019-03-15T17:34:12.399Z,97577.70
2019-03-15T17:36:43.008Z,97578.07
2019-03-15T17:42:05.664Z,97573.53
2019-03-15T17:44:35.905Z,97566.13
2019-03-15T17:47:08.588Z,97573.43
2019-03-15T17:49:38.908Z,97570.67
2019-03-15T17:52:09.682Z,97582.95
2019-03-15T17:54:40.181Z,97579.15
2019-03-15T17:57:29.644Z,97579.02
2019-03-15T18:00:34.937Z,97566.03
2019-03-15T18:03:24.297Z,97570.30
2019-03-15T18:05:54.505Z,97575.45
2019-03-15T18:08:44.002Z,97564.35
2019-03-15T18:11:15.242Z,97570.20
2019-03-15T18:16:56.826Z,97594.04
2019-03-15T18:19:46.489Z,97599.66
2019-03-15T18:22:16.641Z,97587.59
2019-03-15T18:24:47.667Z,97585.09
2019-03-15T18:27:18.178Z,97587.02
2019-03-15T18:30:07.721Z,97586.78
2019-03-15T18:32:57.157Z,97589.03
2019-03-15T18:35:33.671Z,97585.80
2019-03-15T18:38:01.883Z,97588.80
2019-03-15T18:40:51.401Z,97579.38
2019-03-15T18:43:40.754Z,97575.18
2019-03-15T18:46:30.164Z,97581.83
2019-03-15T18:49:19.902Z,97583.05
2019-03-15T18:55:05.212Z,97591.52
2019-03-15T18:57:37.845Z,97586.27
2019-03-15T19:00:11.476Z,97587.48
2019-03-15T19:02:42.682Z,97589.33
2019-03-15T19:05:33.151Z,97590.34
2019-03-15T19:08:22.522Z,97536.98
2019-03-15T19:11:14.229Z,97590.81
2019-03-15T19:14:22.322Z,97586.04
2019-03-15T19:16:53.543Z,97592.13
2019-03-15T19:19:50.059Z,97608.93
2019-03-15T19:22:20.651Z,97591.41
2019-03-15T19:24:54.487Z,97610.38
2019-03-15T19:27:34.707Z,97604.06
2019-03-15T19:30:10.969Z,97606.78
2019-03-15T19:32:43.213Z,97617.51
2019-03-15T19:35:17.800Z,97620.12
2019-03-15T19:38:09.727Z,97628.37
2019-03-15T19:43:50.355Z,97630.05
2019-03-15T19:46:39.809Z,97634.78
2019-03-15T19:49:11.574Z,97636.94
2019-03-15T19:52:05.468Z,97638.25
2019-03-15T19:54:38.103Z,97636.23
2019-03-15T19:57:10.614Z,97636.23
2019-03-15T20:00:08.054Z,97640.73
2019-03-15T20:02:53.857Z,97638.01
2019-03-15T20:05:44.582Z,97640.26
2019-03-15T20:08:14.846Z,97652.76
2019-03-15T20:11:07.259Z,97651.30
2019-03-15T20:13:38.007Z,97575.00
2019-03-15T20:16:08.425Z,97653.95
2019-03-15T20:18:58.065Z,97649.37
2019-03-15T20:21:47.402Z,97641.94
2019-03-15T20:24:18.161Z,97647.87
2019-03-15T20:27:09.575Z,97665.92
2019-03-15T20:30:00.546Z,97674.97
2019-03-15T20:35:44.028Z,97671.41
2019-03-15T20:44:00.318Z,97675.41
2019-03-15T20:46:35.767Z,97692.95
2019-03-15T20:49:02.833Z,97685.88
2019-03-15T20:52:11.335Z,97677.78
2019-03-15T20:55:03.029Z,97674.91
2019-03-15T20:57:34.135Z,97685.08
2019-03-15T21:00:34.788Z,97689.22
2019-03-15T21:03:15.498Z,97687.69
2019-03-15T21:05:49.475Z,97683.98
2019-03-15T21:08:22.026Z,97692.99
2019-03-15T21:10:56.413Z,97692.83
2019-03-15T21:16:23.536Z,97685.16
2019-03-15T21:18:54.681Z,97691.12
2019-03-15T21:21:44.773Z,97701.37
2019-03-15T21:24:15.187Z,97702.39
2019-03-15T21:26:45.379Z,97701.09
2019-03-15T21:29:27.191Z,97706.95
2019-03-15T21:31:57.722Z,97700.78
2019-03-15T21:34:27.876Z,97711.59
2019-03-15T21:36:58.137Z,97704.80
2019-03-15T21:39:28.628Z,97708.38
2019-03-15T21:42:01.106Z,97712.36
2019-03-15T21:44:50.385Z,97713.70
2019-03-15T21:47:22.094Z,97718.73
2019-03-15T21:49:53.613Z,97713.66
2019-03-15T21:52:23.854Z,97717.58
2019-03-15T21:54:56.471Z,97721.72
2019-03-15T21:57:45.689Z,97719.83
2019-03-15T22:00:15.951Z,97721.25
2019-03-15T22:03:05.140Z,97720.25
2019-03-15T22:05:54.730Z,97721.22
2019-03-15T22:08:44.310Z,97730.81
2019-03-15T22:11:21.172Z,97728.70
2019-03-15T22:14:07.443Z,97726.09
2019-03-15T22:16:56.609Z,97737.09
2019-03-15T22:20:04.957Z,97733.85
2019-03-15T22:22:54.172Z,97726.00
2019-03-15T22:25:44.345Z,97739.39
2019-03-15T22:28:33.990Z,97731.19
2019-03-15T22:31:16.970Z,97732.75
2019-03-15T22:33:46.362Z,97738.76
2019-03-15T22:36:35.808Z,97746.14
2019-03-15T22:39:25.100Z,97749.90
2019-03-15T22:41:55.506Z,97745.67
2019-03-15T22:44:45.011Z,97747.83
2019-03-15T22:47:34.431Z,97748.62
2019-03-15T22:50:23.615Z,97749.81
2019-03-15T22:52:54.021Z,97757.88
2019-03-15T22:55:35.022Z,97752.71
2019-03-15T22:58:14.882Z,97748.20
2019-03-15T23:01:04.291Z,97752.34
2019-03-15T23:03:34.405Z,97767.72
2019-03-15T23:06:23.921Z,97772.70
2019-03-15T23:09:13.102Z,97762.38
2019-03-15T23:12:02.610Z,97772.58
2019-03-15T23:14:32.795Z,97782.68
2019-03-15T23:17:02.976Z,97787.48
2019-03-15T23:19:52.188Z,97789.41
2019-03-15T23:22:41.456Z,97785.08
2019-03-15T23:25:31.001Z,97789.33
2019-03-15T23:28:12.764Z,97793.13
2019-03-15T23:30:54.417Z,97791.09
2019-03-15T23:33:35.759Z,97800.69
2019-03-15T23:36:08.630Z,97793.83
2019-03-15T23:38:38.879Z,97790.66
2019-03-15T23:41:32.207Z,97786.70
2019-03-15T23:44:02.569Z,97792.09
2019-03-15T23:50:20.953Z,97797.00
2019-03-15T23:53:10.555Z,97802.75
2019-03-15T23:56:01.341Z,97800.05
2019-03-15T23:58:50.598Z,97803.33
